createdAt,value
2018-12-26T00:02:28.587Z,4.27
2018-12-26T00:04:57.806Z,3.63
2018-12-26T00:07:27.075Z,3.90
2018-12-26T00:09:56.375Z,4.00
2018-12-26T00:12:25.324Z,3.57
2018-12-26T00:14:54.591Z,4.17
2018-12-26T00:17:23.755Z,4.30
2018-12-26T00:19:52.898Z,3.50
2018-12-26T00:22:22.202Z,4.07
2018-12-26T00:24:51.559Z,3.67
2018-12-26T00:27:20.511Z,3.73
2018-12-26T00:29:49.455Z,3.87
2018-12-26T00:32:18.387Z,4.20
2018-12-26T00:34:47.354Z,3.57
2018-12-26T00:37:16.339Z,3.80
2018-12-26T00:39:47.968Z,3.80
2018-12-26T00:42:16.536Z,4.43
2018-12-26T00:44:45.492Z,3.77
2018-12-26T00:47:14.690Z,4.43
2018-12-26T00:49:43.651Z,3.80
2018-12-26T00:52:12.851Z,4.07
2018-12-26T00:54:41.816Z,3.83
2018-12-26T00:57:11.001Z,3.93
2018-12-26T00:59:39.947Z,4.17
2018-12-26T01:02:09.287Z,4.17
2018-12-26T01:04:38.219Z,4.17
2018-12-26T01:07:07.145Z,3.80
2018-12-26T01:09:36.174Z,3.90
2018-12-26T01:12:05.198Z,4.00
2018-12-26T01:14:35.380Z,4.00
2018-12-26T01:17:04.434Z,4.30
2018-12-26T01:19:33.338Z,3.90
2018-12-26T01:22:02.302Z,4.03
2018-12-26T01:24:31.220Z,3.90
2018-12-26T01:27:00.175Z,4.10
2018-12-26T01:29:29.162Z,3.97
2018-12-26T01:31:58.391Z,4.40
2018-12-26T01:34:27.710Z,4.13
2018-12-26T01:36:56.758Z,4.13
2018-12-26T01:39:25.707Z,4.43
2018-12-26T01:41:54.670Z,4.33
2018-12-26T01:44:23.602Z,4.17
2018-12-26T01:46:54.306Z,4.33
2018-12-26T01:49:23.638Z,4.23
2018-12-26T01:51:52.986Z,5.07
2018-12-26T01:54:21.848Z,4.70
2018-12-26T01:56:50.779Z,5.10
2018-12-26T01:59:19.955Z,4.93
2018-12-26T02:01:49.407Z,4.90
2018-12-26T02:04:18.407Z,5.10
2018-12-26T02:06:47.777Z,5.43
2018-12-26T02:09:16.809Z,5.30
2018-12-26T02:11:45.674Z,6.10
2018-12-26T02:14:14.627Z,6.20
2018-12-26T02:16:46.648Z,5.73
2018-12-26T02:19:15.592Z,6.20
2018-12-26T02:21:44.634Z,6.07
2018-12-26T02:24:13.570Z,7.00
2018-12-26T02:26:42.512Z,7.47
2018-12-26T02:29:18.023Z,7.10
2018-12-26T02:31:46.984Z,7.53
2018-12-26T02:34:16.391Z,7.27
2018-12-26T02:36:45.379Z,7.13
2018-12-26T02:39:14.705Z,7.73
2018-12-26T02:41:43.640Z,8.03
2018-12-26T02:44:12.992Z,7.70
2018-12-26T02:46:42.291Z,7.97
2018-12-26T02:49:11.264Z,7.93
2018-12-26T02:51:40.226Z,7.77
2018-12-26T02:54:09.225Z,8.60
2018-12-26T02:56:46.484Z,7.83
2018-12-26T02:59:09.247Z,7.87
2018-12-26T03:01:38.306Z,8.17
2018-12-26T03:04:07.544Z,9.20
2018-12-26T03:06:36.901Z,8.10
2018-12-26T03:09:07.832Z,8.87
2018-12-26T03:11:36.772Z,8.53
2018-12-26T03:14:06.060Z,9.33
2018-12-26T03:16:35.080Z,9.27
2018-12-26T03:19:04.283Z,9.60
2018-12-26T03:21:33.224Z,9.20
2018-12-26T03:24:02.261Z,9.03
2018-12-26T03:26:31.180Z,9.77
2018-12-26T03:29:00.109Z,9.33
2018-12-26T03:31:29.072Z,9.90
2018-12-26T03:33:58.314Z,10.23
2018-12-26T03:36:27.598Z,10.50
2018-12-26T03:38:57.028Z,10.83
2018-12-26T03:41:26.214Z,11.10
2018-12-26T03:43:55.248Z,10.97
2018-12-26T03:46:24.315Z,11.13
2018-12-26T03:48:53.436Z,11.23
2018-12-26T03:51:22.651Z,11.90
2018-12-26T03:53:52.020Z,11.53
2018-12-26T03:56:21.137Z,12.57
2018-12-26T03:58:50.635Z,11.70
2018-12-26T04:01:19.730Z,13.17
2018-12-26T04:03:48.817Z,12.50
2018-12-26T04:06:17.874Z,12.10
2018-12-26T04:08:46.931Z,12.30
2018-12-26T04:11:15.870Z,12.73
2018-12-26T04:13:45.018Z,12.87
2018-12-26T04:16:14.078Z,12.90
2018-12-26T04:18:43.097Z,14.27
2018-12-26T04:21:12.127Z,13.43
2018-12-26T04:23:41.146Z,14.53
2018-12-26T04:26:10.539Z,13.70
2018-12-26T04:28:39.505Z,13.87
2018-12-26T04:31:08.835Z,13.30
2018-12-26T04:33:37.777Z,13.87
2018-12-26T04:36:06.734Z,13.77
2018-12-26T04:38:35.657Z,13.67
2018-12-26T04:41:04.617Z,13.00
2018-12-26T04:43:33.560Z,14.70
2018-12-26T04:46:02.605Z,13.80
2018-12-26T04:48:31.544Z,14.63
2018-12-26T04:51:00.498Z,14.10
2018-12-26T04:53:29.431Z,13.53
2018-12-26T04:55:58.722Z,13.20
2018-12-26T04:58:28.245Z,14.43
2018-12-26T05:00:57.213Z,14.37
2018-12-26T05:03:26.284Z,13.97
2018-12-26T05:05:55.545Z,13.23
2018-12-26T05:08:24.569Z,13.27
2018-12-26T05:10:53.822Z,13.43
2018-12-26T05:13:22.828Z,13.43
2018-12-26T05:15:51.953Z,13.37
2018-12-26T05:18:21.144Z,12.93
2018-12-26T05:20:50.440Z,12.27
2018-12-26T05:23:19.799Z,11.83
2018-12-26T05:25:48.722Z,12.00
2018-12-26T05:28:17.689Z,13.10
2018-12-26T05:30:46.739Z,12.30
2018-12-26T05:33:15.638Z,12.23
2018-12-26T05:35:44.569Z,12.40
2018-12-26T05:38:13.528Z,12.87
2018-12-26T05:40:42.458Z,12.07
2018-12-26T05:43:13.511Z,12.47
2018-12-26T05:45:42.426Z,12.37
2018-12-26T05:48:11.739Z,12.83
2018-12-26T05:50:40.666Z,12.33
2018-12-26T05:53:09.547Z,12.53
2018-12-26T05:55:38.479Z,11.93
2018-12-26T05:58:07.531Z,13.80
2018-12-26T06:00:36.452Z,12.77
2018-12-26T06:03:05.503Z,12.17
2018-12-26T06:05:34.410Z,12.07
2018-12-26T06:08:03.350Z,12.00
2018-12-26T06:10:32.399Z,11.67
2018-12-26T06:13:01.848Z,11.90
2018-12-26T06:15:30.799Z,12.10
2018-12-26T06:17:59.824Z,11.73
2018-12-26T06:20:29.025Z,11.93
2018-12-26T06:22:58.044Z,11.93
2018-12-26T06:25:26.983Z,12.93
2018-12-26T06:27:55.936Z,12.57
2018-12-26T06:30:25.161Z,12.63
2018-12-26T06:32:54.159Z,12.80
2018-12-26T06:35:23.089Z,13.10
2018-12-26T06:37:52.091Z,13.07
2018-12-26T06:40:21.120Z,12.47
2018-12-26T06:42:50.030Z,12.77
2018-12-26T06:45:18.980Z,12.43
2018-12-26T06:47:48.311Z,13.60
2018-12-26T06:50:17.245Z,13.33
2018-12-26T06:52:46.211Z,14.17
2018-12-26T06:55:15.159Z,13.33
2018-12-26T06:57:44.378Z,14.97
2018-12-26T07:00:13.465Z,14.73
2018-12-26T07:02:42.318Z,15.47
2018-12-26T07:05:11.247Z,15.03
2018-12-26T07:07:40.184Z,14.63
2018-12-26T07:10:11.442Z,14.83
2018-12-26T07:12:40.452Z,15.87
2018-12-26T07:15:09.431Z,16.17
2018-12-26T07:17:38.371Z,15.60
2018-12-26T07:20:07.466Z,15.47
2018-12-26T07:22:36.369Z,15.93
2018-12-26T07:25:05.511Z,16.03
2018-12-26T07:27:34.777Z,15.80
2018-12-26T07:30:04.106Z,15.50
2018-12-26T07:32:33.343Z,16.20
2018-12-26T07:35:02.285Z,16.43
2018-12-26T07:37:31.420Z,16.17
2018-12-26T07:40:00.481Z,16.63
2018-12-26T07:42:29.514Z,16.70
2018-12-26T07:44:58.748Z,16.77
2018-12-26T07:47:27.701Z,17.17
2018-12-26T07:49:56.618Z,17.60
2018-12-26T07:52:25.567Z,17.50
2018-12-26T07:54:54.548Z,17.97
2018-12-26T07:57:23.491Z,17.97
2018-12-26T07:59:52.623Z,17.13
2018-12-26T08:02:21.936Z,18.33
2018-12-26T08:04:50.883Z,17.90
2018-12-26T08:07:20.046Z,17.70
2018-12-26T08:09:49.056Z,19.00
2018-12-26T08:12:18.034Z,18.23
2018-12-26T08:14:47.115Z,19.27
2018-12-26T08:17:16.051Z,18.60
2018-12-26T08:19:45.049Z,18.97
2018-12-26T08:22:14.070Z,18.33
2018-12-26T08:24:43.155Z,19.57
2018-12-26T08:27:12.401Z,19.87
2018-12-26T08:29:41.450Z,18.20
2018-12-26T08:32:10.791Z,19.27
2018-12-26T08:34:39.935Z,20.23
2018-12-26T08:37:08.998Z,20.27
2018-12-26T08:39:38.278Z,18.07
2018-12-26T08:42:07.227Z,20.77
2018-12-26T08:44:37.563Z,19.03
2018-12-26T08:47:06.872Z,20.53
2018-12-26T08:49:35.907Z,20.67
2018-12-26T08:52:05.007Z,18.63
2018-12-26T08:54:33.959Z,20.17
2018-12-26T08:57:02.897Z,18.80
2018-12-26T08:59:31.839Z,18.83
2018-12-26T09:02:00.790Z,19.47
2018-12-26T09:04:29.723Z,17.97
2018-12-26T09:06:59.068Z,19.17
2018-12-26T09:09:27.990Z,18.67
2018-12-26T09:11:57.032Z,18.43
2018-12-26T09:14:26.324Z,17.73
2018-12-26T09:16:55.419Z,18.00
2018-12-26T09:19:26.432Z,19.33
2018-12-26T09:21:55.459Z,18.77
2018-12-26T09:24:24.440Z,18.40
2018-12-26T09:26:53.410Z,18.67
2018-12-26T09:29:22.945Z,19.10
2018-12-26T09:31:51.863Z,18.67
2018-12-26T09:34:21.070Z,18.63
2018-12-26T09:36:50.015Z,18.33
2018-12-26T09:39:19.003Z,17.80
2018-12-26T09:41:47.926Z,18.07
2018-12-26T09:44:16.981Z,18.37
2018-12-26T09:46:45.929Z,18.23
2018-12-26T09:49:14.892Z,17.73
2018-12-26T09:51:43.876Z,18.83
2018-12-26T09:54:12.875Z,16.93
2018-12-26T09:56:41.838Z,17.90
2018-12-26T09:59:10.855Z,17.70
2018-12-26T10:01:39.771Z,16.97
2018-12-26T10:04:09.465Z,16.67
2018-12-26T10:06:40.604Z,16.23
2018-12-26T10:09:09.575Z,16.43
2018-12-26T10:11:38.565Z,15.10
2018-12-26T10:14:07.535Z,15.70
2018-12-26T10:16:36.518Z,15.13
2018-12-26T10:19:05.525Z,15.30
2018-12-26T10:21:34.511Z,14.50
2018-12-26T10:24:03.911Z,14.33
2018-12-26T10:26:32.915Z,13.53
2018-12-26T10:29:01.890Z,14.43
2018-12-26T10:31:31.058Z,14.67
2018-12-26T10:33:59.941Z,14.33
2018-12-26T10:36:29.131Z,15.00
2018-12-26T10:38:58.138Z,13.87
2018-12-26T10:41:27.110Z,14.27
2018-12-26T10:43:56.463Z,13.40
2018-12-26T10:46:25.515Z,14.33
2018-12-26T10:48:54.719Z,14.10
2018-12-26T10:51:23.653Z,14.40
2018-12-26T10:53:52.614Z,14.57
2018-12-26T10:56:21.472Z,14.43
2018-12-26T10:58:50.541Z,14.33
2018-12-26T11:01:19.433Z,13.97
2018-12-26T11:03:48.471Z,15.93
2018-12-26T11:06:17.453Z,14.40
2018-12-26T11:08:46.375Z,14.93
2018-12-26T11:11:15.408Z,16.57
2018-12-26T11:13:44.854Z,15.30
2018-12-26T11:16:14.071Z,15.00
2018-12-26T11:18:43.070Z,15.57
2018-12-26T11:21:12.029Z,15.80
2018-12-26T11:23:40.968Z,16.80
2018-12-26T11:26:09.910Z,16.40
2018-12-26T11:28:38.907Z,15.90
2018-12-26T11:31:07.878Z,16.07
2018-12-26T11:33:36.731Z,16.50
2018-12-26T11:36:05.673Z,16.17
2018-12-26T11:38:34.530Z,15.17
2018-12-26T11:41:05.195Z,16.37
2018-12-26T11:43:34.518Z,16.30
2018-12-26T11:46:03.554Z,16.30
2018-12-26T11:48:32.486Z,16.17
2018-12-26T11:51:01.439Z,16.47
2018-12-26T11:53:30.354Z,15.37
2018-12-26T11:55:59.291Z,14.70
2018-12-26T11:58:28.207Z,13.80
2018-12-26T12:00:57.161Z,14.73
2018-12-26T12:03:26.475Z,14.10
2018-12-26T12:05:55.546Z,13.43
2018-12-26T12:08:24.472Z,12.17
2018-12-26T12:10:53.865Z,13.33
2018-12-26T12:13:22.983Z,12.43
2018-12-26T12:15:51.939Z,10.77
2018-12-26T12:18:20.885Z,11.27
2018-12-26T12:20:49.754Z,10.70
2018-12-26T12:23:18.691Z,10.37
2018-12-26T12:25:47.715Z,12.90
2018-12-26T12:28:16.637Z,10.37
2018-12-26T12:30:45.606Z,10.53
2018-12-26T12:33:15.458Z,16.37
2018-12-26T12:35:44.359Z,15.80
2018-12-26T12:38:13.690Z,11.07
2018-12-26T12:40:42.818Z,15.73
2018-12-26T12:43:12.199Z,11.63
2018-12-26T12:45:41.194Z,11.80
2018-12-26T12:48:10.205Z,11.70
2018-12-26T12:50:39.286Z,11.10
2018-12-26T12:53:08.382Z,12.70
2018-12-26T12:55:37.373Z,12.30
2018-12-26T12:58:06.309Z,13.53
2018-12-26T13:00:35.227Z,12.20
2018-12-26T13:03:04.595Z,12.33
2018-12-26T13:05:33.936Z,13.57
2018-12-26T13:08:02.956Z,12.87
2018-12-26T13:10:32.257Z,13.77
2018-12-26T13:13:01.277Z,14.10
2018-12-26T13:15:30.215Z,14.77
2018-12-26T13:17:59.600Z,15.47
2018-12-26T13:20:28.523Z,17.43
2018-12-26T13:23:07.819Z,15.33
2018-12-26T13:25:36.773Z,15.50
2018-12-26T13:28:05.715Z,16.90
2018-12-26T13:30:34.674Z,15.47
2018-12-26T13:33:03.716Z,15.97
2018-12-26T13:35:32.649Z,30.23
2018-12-26T13:38:01.679Z,20.37
2018-12-26T13:40:30.972Z,24.53
2018-12-26T13:42:59.932Z,63.03
2018-12-26T13:45:28.882Z,21.77
2018-12-26T13:47:58.326Z,18.70
2018-12-26T13:50:27.263Z,43.50
2018-12-26T13:52:56.185Z,48.83
2018-12-26T13:55:25.541Z,26.57
2018-12-26T13:57:54.562Z,26.80
2018-12-26T14:00:23.697Z,24.90
2018-12-26T14:02:52.631Z,27.07
2018-12-26T14:05:21.567Z,26.73
2018-12-26T14:07:50.419Z,22.83
2018-12-26T14:10:19.366Z,34.40
2018-12-26T14:12:48.300Z,30.27
2018-12-26T14:15:17.242Z,22.23
2018-12-26T14:17:46.120Z,18.87
2018-12-26T14:20:15.350Z,19.73
2018-12-26T14:22:44.299Z,24.10
2018-12-26T14:25:13.314Z,19.90
2018-12-26T14:27:42.271Z,25.83
2018-12-26T14:30:11.679Z,25.43
2018-12-26T14:32:40.823Z,24.93
2018-12-26T14:35:09.785Z,20.80
2018-12-26T14:37:38.756Z,24.10
2018-12-26T14:40:07.783Z,23.60
2018-12-26T14:42:36.720Z,20.47
2018-12-26T14:45:05.807Z,26.57
2018-12-26T14:47:35.083Z,23.23
2018-12-26T14:50:04.743Z,21.73
2018-12-26T14:52:33.978Z,21.53
2018-12-26T14:55:03.273Z,19.83
2018-12-26T14:57:32.205Z,24.23
2018-12-26T15:00:01.798Z,21.40
2018-12-26T15:02:30.826Z,20.53
2018-12-26T15:04:59.763Z,19.53
2018-12-26T15:07:28.828Z,19.90
2018-12-26T15:09:58.020Z,20.00
2018-12-26T15:12:27.003Z,20.70
2018-12-26T15:14:55.968Z,20.57
2018-12-26T15:17:24.936Z,18.97
2018-12-26T15:19:54.174Z,20.77
2018-12-26T15:22:23.126Z,18.77
2018-12-26T15:24:52.499Z,20.53
2018-12-26T15:27:21.445Z,21.27
2018-12-26T15:29:50.630Z,18.43
2018-12-26T15:32:19.879Z,18.53
2018-12-26T15:34:48.817Z,16.70
2018-12-26T15:37:18.024Z,17.67
2018-12-26T15:39:46.940Z,17.30
2018-12-26T15:42:16.170Z,16.87
2018-12-26T15:44:45.398Z,16.87
2018-12-26T15:47:14.408Z,16.93
2018-12-26T15:49:43.335Z,16.40
2018-12-26T15:52:12.607Z,16.23
2018-12-26T15:54:41.997Z,15.37
2018-12-26T15:57:10.943Z,14.97
2018-12-26T15:59:40.417Z,15.30
2018-12-26T16:02:09.520Z,14.90
2018-12-26T16:04:38.706Z,14.33
2018-12-26T16:07:07.799Z,14.50
2018-12-26T16:09:37.003Z,15.20
2018-12-26T16:12:06.015Z,15.27
2018-12-26T16:14:34.962Z,14.70
2018-12-26T16:17:03.947Z,15.03
2018-12-26T16:19:32.950Z,13.90
2018-12-26T16:22:01.857Z,14.77
2018-12-26T16:24:30.808Z,14.40
2018-12-26T16:26:59.770Z,13.27
2018-12-26T16:29:28.769Z,14.37
2018-12-26T16:31:57.703Z,14.97
2018-12-26T16:34:26.764Z,16.97
2018-12-26T16:36:55.753Z,16.13
2018-12-26T16:39:24.704Z,15.40
2018-12-26T16:41:53.667Z,15.80
2018-12-26T16:44:22.756Z,25.10
2018-12-26T16:46:52.903Z,19.47
2018-12-26T16:49:21.864Z,27.00
2018-12-26T16:51:51.151Z,17.13
2018-12-26T16:54:20.024Z,17.47
2018-12-26T16:56:48.976Z,33.50
2018-12-26T16:59:18.005Z,21.13
2018-12-26T17:01:46.978Z,25.57
2018-12-26T17:04:15.927Z,22.53
2018-12-26T17:06:44.849Z,22.37
2018-12-26T17:09:15.013Z,17.77
2018-12-26T17:11:44.215Z,21.20
2018-12-26T17:14:13.149Z,17.43
2018-12-26T17:16:42.076Z,17.37
2018-12-26T17:19:11.012Z,19.17
2018-12-26T17:21:40.010Z,16.33
2018-12-26T17:24:16.289Z,18.50
2018-12-26T17:26:39.541Z,17.13
2018-12-26T17:29:08.833Z,16.70
2018-12-26T17:31:37.827Z,18.33
2018-12-26T17:34:06.770Z,16.97
2018-12-26T17:36:35.698Z,16.93
2018-12-26T17:39:07.621Z,16.87
2018-12-26T17:41:36.557Z,16.63
2018-12-26T17:44:05.563Z,17.77
2018-12-26T17:46:34.511Z,16.73
2018-12-26T17:49:03.442Z,16.57
2018-12-26T17:51:32.305Z,15.37
2018-12-26T17:54:57.923Z,15.30
2018-12-26T17:57:34.347Z,15.53
2018-12-26T18:00:25.697Z,16.40
2018-12-26T18:02:54.632Z,22.10
2018-12-26T18:05:23.897Z,22.53
2018-12-26T18:07:52.823Z,23.67
2018-12-26T18:10:22.100Z,18.17
2018-12-26T18:12:51.038Z,17.47
2018-12-26T18:15:20.238Z,18.97
2018-12-26T18:17:49.194Z,20.73
2018-12-26T18:20:18.458Z,21.23
2018-12-26T18:22:47.401Z,22.83
2018-12-26T18:25:16.715Z,27.67
2018-12-26T18:27:45.744Z,23.60
2018-12-26T18:30:14.742Z,20.20
2018-12-26T18:32:43.759Z,21.97
2018-12-26T18:35:13.093Z,22.00
2018-12-26T18:37:42.048Z,23.97
2018-12-26T18:40:10.965Z,22.83
2018-12-26T18:42:40.314Z,27.50
2018-12-26T18:45:10.011Z,24.03
2018-12-26T18:47:39.670Z,27.93
2018-12-26T18:50:10.773Z,30.27
2018-12-26T18:52:40.027Z,24.93
2018-12-26T18:55:09.475Z,25.73
2018-12-26T18:57:38.651Z,26.20
2018-12-26T19:00:10.982Z,35.50
2018-12-26T19:02:41.440Z,32.57
2018-12-26T19:05:11.635Z,25.57
2018-12-26T19:07:40.655Z,24.57
2018-12-26T19:10:10.641Z,26.77
2018-12-26T19:12:39.581Z,29.53
2018-12-26T19:15:09.427Z,26.33
2018-12-26T19:17:38.928Z,29.33
2018-12-26T19:20:09.703Z,23.87
2018-12-26T19:22:38.937Z,28.73
2018-12-26T19:25:07.993Z,27.73
2018-12-26T19:27:36.894Z,27.17
2018-12-26T19:30:08.955Z,26.97
2018-12-26T19:32:37.909Z,27.83
2018-12-26T19:35:11.827Z,27.63
2018-12-26T19:37:41.228Z,27.70
2018-12-26T19:40:10.239Z,26.77
2018-12-26T19:42:39.259Z,26.17
2018-12-26T19:45:09.846Z,27.63
2018-12-26T19:47:38.833Z,27.03
2018-12-26T19:50:09.155Z,26.80
2018-12-26T19:52:38.293Z,27.73
2018-12-26T19:55:08.347Z,28.70
2018-12-26T19:57:37.707Z,27.43
2018-12-26T20:00:11.528Z,27.73
2018-12-26T20:02:40.797Z,26.63
2018-12-26T20:05:09.929Z,26.60
2018-12-26T20:07:38.963Z,27.23
2018-12-26T20:10:09.599Z,26.27
2018-12-26T20:12:38.536Z,26.87
2018-12-26T20:15:07.564Z,26.97
2018-12-26T20:17:36.807Z,28.17
2018-12-26T20:20:06.071Z,33.30
2018-12-26T20:22:36.542Z,27.73
2018-12-26T20:25:05.886Z,26.23
2018-12-26T20:27:37.015Z,27.80
2018-12-26T20:30:07.460Z,24.83
2018-12-26T20:32:36.375Z,24.63
2018-12-26T20:35:05.654Z,25.87
2018-12-26T20:37:34.843Z,27.23
2018-12-26T20:40:03.984Z,25.07
2018-12-26T20:42:32.904Z,27.27
2018-12-26T20:45:02.132Z,26.10
2018-12-26T20:47:31.110Z,26.70
2018-12-26T20:50:00.413Z,25.17
2018-12-26T20:52:29.748Z,25.33
2018-12-26T20:54:59.021Z,25.67
2018-12-26T20:57:27.958Z,27.00
2018-12-26T20:59:56.996Z,26.40
2018-12-26T21:02:25.915Z,26.30
2018-12-26T21:04:54.863Z,25.03
2018-12-26T21:07:24.135Z,22.67
2018-12-26T21:09:53.173Z,25.10
2018-12-26T21:12:22.039Z,25.07
2018-12-26T21:14:51.037Z,24.97
2018-12-26T21:17:21.144Z,25.40
2018-12-26T21:19:52.503Z,25.57
2018-12-26T21:22:21.457Z,25.20
2018-12-26T21:24:50.391Z,24.87
2018-12-26T21:27:19.335Z,25.90
2018-12-26T21:29:48.776Z,25.90
2018-12-26T21:32:17.808Z,25.67
2018-12-26T21:34:46.726Z,26.13
2018-12-26T21:37:15.667Z,25.80
2018-12-26T21:39:44.878Z,27.43
2018-12-26T21:42:13.811Z,26.50
2018-12-26T21:44:42.743Z,26.90
2018-12-26T21:47:11.851Z,26.37
2018-12-26T21:49:40.791Z,26.83
2018-12-26T21:52:10.359Z,27.03
2018-12-26T21:54:39.403Z,27.33
2018-12-26T21:57:11.474Z,27.63
2018-12-26T21:59:40.400Z,27.87
2018-12-26T22:02:09.341Z,27.07
2018-12-26T22:04:38.600Z,26.87
2018-12-26T22:07:07.579Z,26.93
2018-12-26T22:09:36.758Z,26.90
2018-12-26T22:12:05.708Z,27.73
2018-12-26T22:14:34.961Z,26.67
2018-12-26T22:17:03.970Z,27.47
2018-12-26T22:19:32.899Z,27.60
2018-12-26T22:22:02.094Z,27.57
2018-12-26T22:24:31.607Z,29.60
2018-12-26T22:27:00.547Z,26.00
2018-12-26T22:29:29.759Z,28.03
2018-12-26T22:31:58.733Z,27.10
2018-12-26T22:34:27.591Z,30.47
2018-12-26T22:36:56.571Z,28.67
2018-12-26T22:39:25.774Z,28.33
2018-12-26T22:41:54.697Z,29.53
2018-12-26T22:44:27.695Z,28.47
2018-12-26T22:46:54.682Z,30.17
2018-12-26T22:49:23.654Z,29.10
2018-12-26T22:51:52.903Z,29.30
2018-12-26T22:54:22.209Z,29.87
2018-12-26T22:56:52.335Z,28.87
2018-12-26T22:59:21.277Z,28.63
2018-12-26T23:01:50.227Z,27.30
2018-12-26T23:04:19.161Z,28.87
2018-12-26T23:06:48.116Z,27.13
2018-12-26T23:09:17.179Z,28.33
2018-12-26T23:11:46.443Z,28.80
2018-12-26T23:14:15.377Z,29.60
2018-12-26T23:16:44.401Z,28.30
2018-12-26T23:19:13.404Z,27.13
2018-12-26T23:21:42.342Z,28.27
2018-12-26T23:24:11.346Z,28.20
2018-12-26T23:26:40.615Z,26.23
2018-12-26T23:29:09.863Z,29.50
2018-12-26T23:31:39.023Z,27.10
2018-12-26T23:34:07.957Z,25.87
2018-12-26T23:36:36.874Z,24.70
2018-12-26T23:39:07.395Z,26.13
2018-12-26T23:41:36.491Z,25.93
2018-12-26T23:44:07.882Z,26.23
2018-12-26T23:46:36.816Z,25.40
2018-12-26T23:49:05.755Z,25.03
2018-12-26T23:51:34.985Z,25.37
2018-12-26T23:54:04.809Z,25.53
2018-12-26T23:56:33.746Z,25.47
2018-12-26T23:59:02.675Z,24.83
